SBOSBO IBZ / LEIB
Speedbird OnlineSpeedbird Online IBZ / LEIB

Ibiza Airport
06:59 6.9°C

Location Ibiza, Spain
Latitude: 38.872898101800004
Longitude: 1.3731199502899998
Web Airport Website | Wikipedia
Altitude 7 Meter / 24 Feet
Distance 1,408 KM / 875 Miles
from London.
Time Zone UTC +1 hours (Europe/Madrid)
Codes IATA: IBZ
ICAO: LEIB
Currency £1 equals EUR 1.14
Runways
RunwayLength (m)Surface
062800Asphalt
242800Asphalt
Radio
TypeDescriptionFrequency
APPPALMA APP118.125
APPAPP119.8
ATISATIS117.8
GNDGND121.8
TWRTWR118.5
Live ATC
METAR LEIB 290530Z 34006KT 9999 3000 OVC074TCU 07/04 Q1021 NOSIG
TAF TAF LEIB 290200Z 2903/3003 04013KT 9999 SCT020 SCT040 TX13/2912Z TN05/2906Z PROB40 TEMPO 2903/2908 VRB05KT TEMPO 2903/2912 4000 SHRA BKN020 FEW025TCU TEMPO 2910/2918 04015G25KT
Weather As Of 29 Jan 2023 06:59
Description Overcast clouds
Wind 16 km/h from North (19°)
Cloud Cover 100%
Precipitation Rain: none, Snow: none
Sunrise 08:03
Sunset 18:11
Lounges SALA VIP Cap des Falco , Main Terminal
Rotations During the last 90 days there were
78 flights from LCY
77 flights to LCY
1 flights to LGW



Support Speedbird Online

© 2017-2023 Speedbird Online